Frankton, Indiana
Current Conditions -  °F | °C
As of 2:15 AM on Thursday 18 Dec 2014 (Local Time) from KMZZ Reporting Station
Overcast Overcast  
Wind Chill: 18°   Ceiling: 2600
Heat Index: 25°   Visibility: 10mi
Dew Point: 22°   Wind: 6mph
Humidity: 87%   Direction: 270°W
Pressure: 30.27"   Gusts: NA
Location:  40.22°N, 85.78°W
Report Text: KMZZ 180715Z AUTO 27005KT 10SM OVC026 M04/M06 A3027 RMK AO2 T10381057
Loading
Personal Weather Stations






























Interactive Weather Map New forecast layout! Learn more

10-Day Weather Forecast

Advertisements
Track Severe Weather on mobile